createdAt,value
2018-08-06T00:02:20.187Z,3.30
2018-08-06T00:04:48.617Z,2.57
2018-08-06T00:07:17.048Z,2.63
2018-08-06T00:09:45.429Z,3.83
2018-08-06T00:12:13.611Z,1.90
2018-08-06T00:14:42.048Z,1.70
2018-08-06T00:17:10.782Z,2.17
2018-08-06T00:19:39.190Z,3.13
2018-08-06T00:22:07.672Z,3.20
2018-08-06T00:24:36.024Z,3.60
2018-08-06T00:27:04.445Z,2.40
2018-08-06T00:29:33.131Z,3.40
2018-08-06T00:32:01.453Z,3.70
2018-08-06T00:34:29.911Z,2.30
2018-08-06T00:36:58.320Z,2.17
2018-08-06T00:39:26.803Z,2.80
2018-08-06T00:41:55.611Z,2.47
2018-08-06T00:44:24.145Z,3.00
2018-08-06T00:46:52.276Z,2.07
2018-08-06T00:49:20.772Z,2.37
2018-08-06T00:51:49.515Z,3.03
2018-08-06T00:54:17.595Z,3.00
2018-08-06T00:56:45.955Z,2.50
2018-08-06T00:59:14.404Z,3.50
2018-08-06T01:01:42.789Z,3.27
2018-08-06T01:04:11.220Z,3.03
2018-08-06T01:06:39.773Z,2.57
2018-08-06T01:09:09.776Z,2.50
2018-08-06T01:11:38.541Z,2.80
2018-08-06T01:14:07.059Z,2.27
2018-08-06T01:16:35.696Z,2.50
2018-08-06T01:19:04.221Z,2.30
2018-08-06T01:21:32.859Z,3.10
2018-08-06T01:24:01.188Z,2.70
2018-08-06T01:26:29.623Z,4.40
2018-08-06T01:28:58.230Z,2.50
2018-08-06T01:31:26.791Z,2.57
2018-08-06T01:33:55.230Z,3.77
2018-08-06T01:36:23.308Z,2.93
2018-08-06T01:38:51.795Z,2.40
2018-08-06T01:41:20.304Z,2.50
2018-08-06T01:43:48.818Z,2.67
2018-08-06T01:46:17.698Z,2.87
2018-08-06T01:48:45.913Z,2.30
2018-08-06T01:51:14.581Z,2.87
2018-08-06T01:53:42.940Z,2.10
2018-08-06T01:56:11.628Z,3.23
2018-08-06T01:58:40.521Z,3.03
2018-08-06T02:01:09.080Z,2.93
2018-08-06T02:03:37.171Z,2.90
2018-08-06T02:06:05.712Z,2.60
2018-08-06T02:08:34.195Z,2.60
2018-08-06T02:11:02.516Z,2.70
2018-08-06T02:13:30.957Z,2.57
2018-08-06T02:15:59.409Z,3.60
2018-08-06T02:18:28.027Z,2.60
2018-08-06T02:20:56.280Z,3.33
2018-08-06T02:23:27.174Z,4.43
2018-08-06T02:25:56.024Z,2.83
2018-08-06T02:28:25.092Z,2.70
2018-08-06T02:30:55.212Z,3.83
2018-08-06T02:33:25.419Z,3.47
2018-08-06T02:35:55.425Z,3.40
2018-08-06T02:38:24.346Z,3.27
2018-08-06T02:40:53.023Z,4.33
2018-08-06T02:43:21.577Z,3.07
2018-08-06T02:45:49.991Z,3.33
2018-08-06T02:48:18.482Z,4.00
2018-08-06T02:50:46.980Z,2.90
2018-08-06T02:53:15.396Z,3.37
2018-08-06T02:55:43.920Z,3.77
2018-08-06T02:58:12.338Z,2.77
2018-08-06T03:00:40.936Z,2.93
2018-08-06T03:03:09.506Z,2.30
2018-08-06T03:05:38.091Z,4.83
2018-08-06T03:08:06.493Z,3.57
2018-08-06T03:10:34.898Z,3.87
2018-08-06T03:13:03.272Z,3.73
2018-08-06T03:15:31.751Z,3.47
2018-08-06T03:18:00.047Z,3.03
2018-08-06T03:20:28.445Z,3.40
2018-08-06T03:22:57.070Z,3.00
2018-08-06T03:25:25.862Z,3.43
2018-08-06T03:27:55.180Z,3.23
2018-08-06T03:30:24.244Z,3.37
2018-08-06T03:32:53.449Z,3.03
2018-08-06T03:35:21.894Z,2.97
2018-08-06T03:37:50.513Z,3.37
2018-08-06T03:40:25.239Z,3.10
2018-08-06T03:42:54.133Z,3.30
2018-08-06T03:45:22.955Z,6.10
2018-08-06T03:47:51.593Z,3.23
2018-08-06T03:50:20.184Z,3.77
2018-08-06T03:52:48.391Z,4.27
2018-08-06T03:55:17.027Z,4.23
2018-08-06T03:57:46.026Z,3.20
2018-08-06T04:00:15.332Z,3.83
2018-08-06T04:02:44.534Z,3.30
2018-08-06T04:05:14.367Z,5.27
2018-08-06T04:07:43.208Z,4.27
2018-08-06T04:10:12.309Z,3.30
2018-08-06T04:12:41.597Z,3.83
2018-08-06T04:15:10.846Z,3.93
2018-08-06T04:17:39.829Z,3.87
2018-08-06T04:20:09.819Z,3.33
2018-08-06T04:22:39.109Z,3.73
2018-08-06T04:25:07.955Z,4.13
2018-08-06T04:27:37.136Z,6.10
2018-08-06T04:30:06.765Z,4.17
2018-08-06T04:32:35.816Z,3.70
2018-08-06T04:35:04.115Z,3.60
2018-08-06T04:37:33.956Z,4.97
2018-08-06T04:40:02.779Z,4.20
2018-08-06T04:42:31.247Z,6.87
2018-08-06T04:44:59.691Z,3.93
2018-08-06T04:47:28.617Z,4.87
2018-08-06T04:49:57.760Z,4.27
2018-08-06T04:52:26.481Z,3.37
2018-08-06T04:54:55.254Z,3.60
2018-08-06T04:57:25.060Z,4.27
2018-08-06T04:59:54.780Z,3.80
2018-08-06T05:02:24.197Z,3.73
2018-08-06T05:04:52.869Z,3.47
2018-08-06T05:07:23.494Z,4.00
2018-08-06T05:09:52.590Z,6.67
2018-08-06T05:12:20.963Z,6.00
2018-08-06T05:14:49.353Z,4.20
2018-08-06T05:17:17.803Z,4.93
2018-08-06T05:20:03.453Z,6.13
2018-08-06T05:22:31.985Z,5.33
2018-08-06T05:25:00.523Z,4.30
2018-08-06T05:27:28.838Z,4.30
2018-08-06T05:29:57.517Z,5.53
2018-08-06T05:32:25.847Z,3.83
2018-08-06T05:34:54.477Z,5.10
2018-08-06T05:37:23.060Z,4.07
2018-08-06T05:39:52.138Z,4.10
2018-08-06T05:42:21.012Z,4.67
2018-08-06T05:44:50.935Z,6.03
2018-08-06T05:47:19.712Z,3.67
2018-08-06T05:49:48.845Z,3.40
2018-08-06T05:52:17.245Z,3.50
2018-08-06T05:54:45.741Z,4.87
2018-08-06T05:57:14.394Z,4.30
2018-08-06T05:59:42.897Z,4.50
2018-08-06T06:02:12.741Z,5.83
2018-08-06T06:04:41.605Z,4.27
2018-08-06T06:07:10.128Z,3.20
2018-08-06T06:09:38.517Z,5.23
2018-08-06T06:12:06.880Z,4.87
2018-08-06T06:14:35.670Z,5.53
2018-08-06T06:17:04.168Z,4.53
2018-08-06T06:19:32.698Z,3.40
2018-08-06T06:22:01.291Z,4.20
2018-08-06T06:24:30.343Z,4.77
2018-08-06T06:26:59.296Z,3.77
2018-08-06T06:29:29.473Z,4.93
2018-08-06T06:31:59.571Z,3.13
2018-08-06T06:34:29.260Z,6.07
2018-08-06T06:37:02.240Z,5.50
2018-08-06T06:39:32.325Z,4.83
2018-08-06T06:42:01.212Z,3.87
2018-08-06T06:44:30.191Z,8.53
2018-08-06T06:46:58.697Z,4.63
2018-08-06T06:49:27.040Z,5.93
2018-08-06T06:51:55.600Z,5.83
2018-08-06T06:54:24.031Z,3.77
2018-08-06T06:56:52.334Z,4.17
2018-08-06T06:59:20.746Z,6.00
2018-08-06T07:01:49.224Z,4.27
2018-08-06T07:04:17.533Z,3.67
2018-08-06T07:06:45.871Z,4.50
2018-08-06T07:09:13.944Z,7.10
2018-08-06T07:11:42.398Z,3.93
2018-08-06T07:14:11.049Z,3.73
2018-08-06T07:16:39.411Z,5.30
2018-08-06T07:19:07.757Z,6.23
2018-08-06T07:21:36.400Z,4.40
2018-08-06T07:24:04.494Z,4.50
2018-08-06T07:26:32.817Z,3.70
2018-08-06T07:29:01.301Z,3.10
2018-08-06T07:31:30.429Z,3.63
2018-08-06T07:33:58.723Z,3.97
2018-08-06T07:36:27.001Z,3.03
2018-08-06T07:38:55.322Z,3.43
2018-08-06T07:41:23.733Z,4.37
2018-08-06T07:43:52.039Z,4.07
2018-08-06T07:46:20.435Z,5.23
2018-08-06T07:48:48.440Z,4.03
2018-08-06T07:51:16.788Z,5.53
2018-08-06T07:53:45.093Z,3.53
2018-08-06T07:56:13.149Z,5.20
2018-08-06T07:58:41.407Z,5.07
2018-08-06T08:01:09.684Z,4.87
2018-08-06T08:03:38.292Z,3.47
2018-08-06T08:06:06.648Z,4.90
2018-08-06T08:08:35.032Z,5.33
2018-08-06T08:11:03.062Z,3.40
2018-08-06T08:13:31.395Z,8.47
2018-08-06T08:15:59.703Z,4.37
2018-08-06T08:18:27.747Z,3.33
2018-08-06T08:20:56.368Z,5.37
2018-08-06T08:23:24.471Z,3.33
2018-08-06T08:25:52.762Z,2.93
2018-08-06T08:28:21.092Z,4.93
2018-08-06T08:30:49.605Z,3.93
2018-08-06T08:33:18.567Z,5.37
2018-08-06T08:35:46.966Z,5.43
2018-08-06T08:38:15.260Z,7.10
2018-08-06T08:40:43.614Z,3.33
2018-08-06T08:43:11.891Z,5.40
2018-08-06T08:45:40.049Z,2.20
2018-08-06T08:48:08.001Z,5.30
2018-08-06T08:50:36.284Z,3.93
2018-08-06T08:53:04.642Z,3.60
2018-08-06T08:55:32.647Z,3.07
2018-08-06T08:58:00.917Z,5.40
2018-08-06T09:00:29.238Z,3.27
2018-08-06T09:02:57.532Z,3.77
2018-08-06T09:05:25.839Z,4.07
2018-08-06T09:07:54.155Z,4.30
2018-08-06T09:10:22.958Z,4.27
2018-08-06T09:12:50.968Z,3.30
2018-08-06T09:15:21.693Z,4.27
2018-08-06T09:17:49.977Z,4.17
2018-08-06T09:20:18.290Z,2.77
2018-08-06T09:22:47.121Z,1.80
2018-08-06T09:25:15.715Z,3.33
2018-08-06T09:27:46.249Z,2.27
2018-08-06T09:30:19.110Z,3.80
2018-08-06T09:32:53.840Z,3.73
2018-08-06T09:35:22.208Z,4.67
2018-08-06T09:37:51.775Z,3.60
2018-08-06T09:40:21.141Z,3.03
2018-08-06T09:42:50.022Z,4.07
2018-08-06T09:45:19.528Z,5.23
2018-08-06T09:47:49.262Z,4.33
2018-08-06T09:50:18.357Z,2.60
2018-08-06T09:52:47.668Z,2.47
2018-08-06T09:55:18.936Z,2.70
2018-08-06T09:57:47.832Z,3.03
2018-08-06T10:00:28.460Z,1.90
2018-08-06T10:02:59.150Z,2.30
2018-08-06T10:05:28.073Z,3.03
2018-08-06T10:07:56.432Z,2.30
2018-08-06T10:10:25.408Z,2.77
2018-08-06T10:12:53.666Z,2.77
2018-08-06T10:15:22.444Z,3.27
2018-08-06T10:17:54.280Z,2.30
2018-08-06T10:20:24.142Z,4.70
2018-08-06T10:22:52.376Z,3.43
2018-08-06T10:25:20.680Z,4.57
2018-08-06T10:27:48.910Z,4.00
2018-08-06T10:30:21.113Z,5.17
2018-08-06T10:32:49.293Z,5.70
2018-08-06T10:35:18.189Z,5.00
2018-08-06T10:37:46.493Z,3.30
2018-08-06T10:40:19.194Z,6.40
2018-08-06T10:42:47.787Z,2.57
2018-08-06T10:45:18.127Z,3.53
2018-08-06T10:47:46.639Z,3.00
2018-08-06T10:50:14.631Z,4.37
2018-08-06T10:52:42.688Z,3.87
2018-08-06T10:55:11.457Z,4.60
2018-08-06T10:57:41.269Z,3.60
2018-08-06T11:00:22.633Z,3.40
2018-08-06T11:02:50.860Z,5.53
2018-08-06T11:05:19.385Z,3.63
2018-08-06T11:07:47.692Z,4.43
2018-08-06T11:10:17.067Z,3.83
2018-08-06T11:12:45.356Z,3.80
2018-08-06T11:15:17.099Z,2.27
2018-08-06T11:17:45.627Z,3.10
2018-08-06T11:20:15.017Z,3.60
2018-08-06T11:22:43.434Z,5.83
2018-08-06T11:25:13.179Z,3.07
2018-08-06T11:27:41.556Z,4.57
2018-08-06T11:30:12.088Z,4.37
2018-08-06T11:32:40.395Z,3.60
2018-08-06T11:35:09.841Z,3.40
2018-08-06T11:37:37.909Z,3.27
2018-08-06T11:40:07.673Z,6.90
2018-08-06T11:42:36.686Z,4.57
2018-08-06T11:45:05.657Z,3.70
2018-08-06T11:47:33.959Z,3.27
2018-08-06T11:50:02.257Z,6.50
2018-08-06T11:52:30.507Z,4.07
2018-08-06T11:54:58.827Z,3.43
2018-08-06T11:57:27.144Z,3.37
2018-08-06T11:59:55.508Z,2.97
2018-08-06T12:02:24.081Z,3.13
2018-08-06T12:04:52.091Z,4.23
2018-08-06T12:07:20.556Z,2.57
2018-08-06T12:09:48.548Z,3.97
2018-08-06T12:12:17.023Z,2.23
2018-08-06T12:14:45.071Z,2.40
2018-08-06T12:17:13.748Z,3.17
2018-08-06T12:19:42.248Z,3.20
2018-08-06T12:22:10.537Z,3.73
2018-08-06T12:24:38.934Z,5.73
2018-08-06T12:27:07.289Z,4.67
2018-08-06T12:29:35.606Z,3.17
2018-08-06T12:32:03.938Z,3.23
2018-08-06T12:34:32.240Z,2.67
2018-08-06T12:37:00.520Z,2.37
2018-08-06T12:39:28.920Z,2.43
2018-08-06T12:41:57.182Z,5.30
2018-08-06T12:44:25.531Z,3.23
2018-08-06T12:46:53.863Z,2.90
2018-08-06T12:49:21.951Z,3.80
2018-08-06T12:51:50.364Z,3.90
2018-08-06T12:54:18.548Z,5.07
2018-08-06T12:56:46.614Z,3.67
2018-08-06T12:59:14.885Z,4.57
2018-08-06T13:01:43.163Z,3.40
2018-08-06T13:04:11.450Z,4.83
2018-08-06T13:06:39.745Z,5.63
2018-08-06T13:09:09.222Z,2.73
2018-08-06T13:11:37.505Z,2.60
2018-08-06T13:14:06.332Z,5.67
2018-08-06T13:16:34.690Z,2.97
2018-08-06T13:19:02.972Z,5.00
2018-08-06T13:21:31.072Z,4.33
2018-08-06T13:23:59.732Z,2.47
2018-08-06T13:26:28.077Z,3.13
2018-08-06T13:28:56.364Z,3.33
2018-08-06T13:31:25.127Z,4.80
2018-08-06T13:33:53.480Z,4.00
2018-08-06T13:36:21.783Z,2.27
2018-08-06T13:38:50.089Z,2.97
2018-08-06T13:41:18.387Z,3.90
2018-08-06T13:43:47.455Z,3.83
2018-08-06T13:46:15.758Z,3.57
2018-08-06T13:48:44.032Z,2.33
2018-08-06T13:51:12.311Z,3.10
2018-08-06T13:53:40.627Z,5.37
2018-08-06T13:56:08.938Z,3.80
2018-08-06T13:58:36.939Z,3.13
2018-08-06T14:01:05.244Z,3.97
2018-08-06T14:03:33.583Z,4.53
2018-08-06T14:06:01.908Z,3.17
2018-08-06T14:08:30.218Z,2.40
2018-08-06T14:10:58.583Z,3.10
2018-08-06T14:13:26.891Z,3.03
2018-08-06T14:15:55.220Z,3.00
2018-08-06T14:18:23.527Z,4.57
2018-08-06T14:20:51.547Z,7.10
2018-08-06T14:23:20.429Z,3.60
2018-08-06T14:25:48.943Z,3.10
2018-08-06T14:28:17.770Z,2.53
2018-08-06T14:30:46.055Z,3.87
2018-08-06T14:33:14.489Z,3.20
2018-08-06T14:35:42.801Z,4.93
2018-08-06T14:38:11.156Z,2.53
2018-08-06T14:40:39.914Z,3.83
2018-08-06T14:43:08.512Z,3.10
2018-08-06T14:45:36.795Z,5.17
2018-08-06T14:48:05.124Z,4.80
2018-08-06T14:50:33.488Z,3.70
2018-08-06T14:53:01.820Z,3.30
2018-08-06T14:55:30.416Z,4.77
2018-08-06T14:57:58.599Z,6.40
2018-08-06T15:00:26.927Z,14.50
2018-08-06T15:02:55.236Z,8.70
2018-08-06T15:05:23.507Z,8.10
2018-08-06T15:07:51.792Z,5.07
2018-08-06T15:10:20.157Z,6.20
2018-08-06T15:12:48.448Z,4.17
2018-08-06T15:15:17.554Z,3.20
2018-08-06T15:17:46.533Z,3.30
2018-08-06T15:20:16.016Z,4.07
2018-08-06T15:22:44.396Z,3.63
2018-08-06T15:25:18.786Z,3.43
2018-08-06T15:27:53.511Z,3.27
2018-08-06T15:30:21.860Z,4.33
2018-08-06T15:32:56.015Z,4.27
2018-08-06T15:35:26.481Z,3.13
2018-08-06T15:37:54.684Z,5.10
2018-08-06T15:40:23.296Z,4.20
2018-08-06T15:42:51.592Z,2.73
2018-08-06T15:45:20.116Z,3.20
2018-08-06T15:47:48.743Z,3.33
2018-08-06T15:50:19.044Z,4.33
2018-08-06T15:52:47.456Z,5.00
2018-08-06T15:55:15.776Z,3.33
2018-08-06T15:57:43.824Z,2.90
2018-08-06T16:00:14.340Z,3.60
2018-08-06T16:02:42.744Z,5.30
2018-08-06T16:05:11.421Z,3.43
2018-08-06T16:07:39.931Z,5.43
2018-08-06T16:10:09.723Z,4.17
2018-08-06T16:12:38.020Z,5.60
2018-08-06T16:15:08.200Z,3.83
2018-08-06T16:17:36.855Z,6.37
2018-08-06T16:20:07.125Z,5.13
2018-08-06T16:22:35.428Z,3.20
2018-08-06T16:25:03.887Z,5.67
2018-08-06T16:27:32.209Z,5.70
2018-08-06T16:30:00.629Z,4.53
2018-08-06T16:32:28.948Z,3.77
2018-08-06T16:34:57.288Z,3.83
2018-08-06T16:37:25.593Z,3.77
2018-08-06T16:39:53.602Z,3.80
2018-08-06T16:42:22.252Z,5.50
2018-08-06T16:44:50.528Z,8.60
2018-08-06T16:47:18.809Z,4.07
2018-08-06T16:49:47.100Z,2.30
2018-08-06T16:52:15.462Z,6.57
2018-08-06T16:54:43.412Z,3.10
2018-08-06T16:57:11.684Z,2.67
2018-08-06T16:59:39.773Z,3.23
2018-08-06T17:02:08.100Z,2.77
2018-08-06T17:04:36.348Z,2.83
2018-08-06T17:07:04.582Z,3.50
2018-08-06T17:09:32.851Z,3.47
2018-08-06T17:12:01.221Z,3.27
2018-08-06T17:14:29.255Z,2.40
2018-08-06T17:16:57.527Z,3.47
2018-08-06T17:19:25.833Z,3.43
2018-08-06T17:21:54.121Z,4.27
2018-08-06T17:24:22.422Z,3.77
2018-08-06T17:26:50.709Z,3.13
2018-08-06T17:29:18.988Z,2.80
2018-08-06T17:31:47.263Z,3.50
2018-08-06T17:34:15.681Z,2.50
2018-08-06T17:36:44.016Z,5.33
2018-08-06T17:39:12.860Z,6.90
2018-08-06T17:41:41.552Z,5.33
2018-08-06T17:44:09.955Z,2.77
2018-08-06T17:46:38.275Z,3.83
2018-08-06T17:49:06.631Z,4.10
2018-08-06T17:51:34.915Z,2.93
2018-08-06T17:54:02.969Z,3.73
2018-08-06T17:56:31.340Z,4.30
2018-08-06T17:58:59.629Z,3.43
2018-08-06T18:01:27.631Z,4.23
2018-08-06T18:03:55.937Z,3.47
2018-08-06T18:06:24.295Z,2.70
2018-08-06T18:08:52.728Z,4.87
2018-08-06T18:11:21.000Z,3.73
2018-08-06T18:13:49.487Z,3.77
2018-08-06T18:16:17.781Z,4.63
2018-08-06T18:18:46.039Z,2.50
2018-08-06T18:21:14.432Z,3.53
2018-08-06T18:23:42.722Z,3.80
2018-08-06T18:26:10.735Z,3.07
2018-08-06T18:28:38.996Z,4.20
2018-08-06T18:31:07.304Z,3.47
2018-08-06T18:33:35.666Z,2.93
2018-08-06T18:36:03.928Z,3.20
2018-08-06T18:38:32.399Z,4.17
2018-08-06T18:41:00.875Z,2.73
2018-08-06T18:43:29.180Z,3.53
2018-08-06T18:45:57.531Z,3.20
2018-08-06T18:48:25.826Z,2.83
2018-08-06T18:50:54.163Z,2.53
2018-08-06T18:53:22.461Z,5.70
2018-08-06T18:55:50.732Z,2.63
2018-08-06T18:58:19.203Z,3.60
2018-08-06T19:00:47.517Z,4.77
2018-08-06T19:03:17.190Z,3.43
2018-08-06T19:05:45.478Z,4.43
2018-08-06T19:08:13.748Z,3.30
2018-08-06T19:10:42.571Z,3.30
2018-08-06T19:13:16.435Z,3.37
2018-08-06T19:15:44.772Z,3.43
2018-08-06T19:18:22.901Z,2.63
2018-08-06T19:20:51.494Z,3.03
2018-08-06T19:23:22.559Z,3.10
2018-08-06T19:25:51.648Z,3.53
2018-08-06T19:28:19.985Z,3.93
2018-08-06T19:30:54.076Z,3.13
2018-08-06T19:33:22.491Z,3.20
2018-08-06T19:35:51.489Z,2.43
2018-08-06T19:38:19.795Z,4.50
2018-08-06T19:45:45.980Z,5.83
2018-08-06T19:48:14.448Z,10.83
2018-08-06T19:50:44.069Z,6.60
2018-08-06T19:53:12.640Z,6.40
2018-08-06T19:55:46.404Z,5.17
2018-08-06T19:58:14.436Z,4.57
2018-08-06T20:00:42.895Z,3.00
2018-08-06T20:03:10.988Z,4.70
2018-08-06T20:05:39.019Z,3.00
2018-08-06T20:08:07.740Z,2.87
2018-08-06T20:10:36.135Z,2.93
2018-08-06T20:13:04.388Z,6.23
2018-08-06T20:15:32.722Z,3.80
2018-08-06T20:18:03.018Z,4.87
2018-08-06T20:20:31.377Z,4.60
2018-08-06T20:22:59.776Z,3.40
2018-08-06T20:25:28.433Z,4.40
2018-08-06T20:27:56.908Z,4.43
2018-08-06T20:30:25.269Z,3.87
2018-08-06T20:32:53.596Z,5.43
2018-08-06T20:35:22.011Z,2.73
2018-08-06T20:37:50.400Z,4.70
2018-08-06T20:40:18.456Z,3.90
2018-08-06T20:42:46.991Z,4.73
2018-08-06T20:45:18.684Z,4.10
2018-08-06T20:47:48.279Z,4.13
2018-08-06T20:50:20.428Z,4.20
2018-08-06T20:52:49.692Z,3.90
2018-08-06T20:55:18.062Z,5.30
2018-08-06T20:57:46.909Z,5.90
2018-08-06T21:00:17.831Z,7.23
2018-08-06T21:02:47.473Z,7.17
2018-08-06T21:05:20.955Z,7.17
2018-08-06T21:07:49.395Z,8.63
2018-08-06T21:10:18.265Z,8.40
2018-08-06T21:12:47.146Z,10.03
2018-08-06T21:15:15.901Z,8.70
2018-08-06T21:17:44.346Z,7.83
2018-08-06T21:20:16.440Z,6.77
2018-08-06T21:22:49.945Z,8.60
2018-08-06T21:25:37.105Z,7.23
2018-08-06T21:28:05.488Z,8.67
2018-08-06T21:30:33.800Z,9.13
2018-08-06T21:33:02.101Z,7.57
2018-08-06T21:35:30.458Z,8.63
2018-08-06T21:37:59.205Z,9.40
2018-08-06T21:40:27.249Z,11.17
2018-08-06T21:42:55.892Z,8.50
2018-08-06T21:45:24.740Z,11.20
2018-08-06T21:47:53.112Z,9.43
2018-08-06T21:50:24.116Z,7.73
2018-08-06T21:52:57.927Z,9.83
2018-08-06T21:55:26.523Z,9.57
2018-08-06T21:57:55.156Z,9.33
2018-08-06T22:00:31.399Z,9.07
2018-08-06T22:03:01.713Z,8.33
2018-08-06T22:05:30.722Z,6.33
2018-08-06T22:08:00.493Z,6.50
2018-08-06T22:10:29.592Z,7.13
2018-08-06T22:12:58.595Z,8.43
2018-08-06T22:15:27.224Z,7.17
2018-08-06T22:17:55.739Z,7.53
2018-08-06T22:20:28.052Z,6.30
2018-08-06T22:22:57.709Z,7.60
2018-08-06T22:25:27.902Z,6.20
2018-08-06T22:27:57.824Z,5.83
2018-08-06T22:30:30.344Z,4.40
2018-08-06T22:32:58.646Z,5.67
2018-08-06T22:35:27.846Z,5.37
2018-08-06T22:37:56.582Z,5.87
2018-08-06T22:40:25.233Z,6.30
2018-08-06T22:42:53.291Z,5.03
2018-08-06T22:45:27.382Z,5.33
2018-08-06T22:47:59.192Z,4.20
2018-08-06T22:50:30.012Z,5.00
2018-08-06T22:53:01.265Z,7.27
2018-08-06T22:55:34.909Z,7.30
2018-08-06T22:58:06.949Z,6.87
2018-08-06T23:00:40.644Z,5.13
2018-08-06T23:03:09.784Z,5.97
2018-08-06T23:05:42.094Z,6.90
2018-08-06T23:08:11.039Z,4.77
2018-08-06T23:10:40.118Z,5.87
2018-08-06T23:13:08.762Z,4.87
2018-08-06T23:15:37.140Z,5.00
2018-08-06T23:18:11.398Z,5.87
2018-08-06T23:20:41.803Z,6.07
2018-08-06T23:23:10.236Z,5.37
2018-08-06T23:25:38.518Z,7.17
2018-08-06T23:28:06.938Z,6.17
2018-08-06T23:30:35.230Z,4.67
2018-08-06T23:33:03.693Z,5.63
2018-08-06T23:35:31.989Z,6.73
2018-08-06T23:38:00.308Z,6.50
2018-08-06T23:40:28.642Z,5.63
2018-08-06T23:42:57.068Z,6.77
2018-08-06T23:45:25.438Z,5.07
2018-08-06T23:47:53.759Z,4.83
2018-08-06T23:50:22.065Z,8.90
2018-08-06T23:52:50.404Z,4.70
2018-08-06T23:55:19.227Z,5.77
2018-08-06T23:57:47.947Z,4.83
